Aviation Digital Data Service (ADDS)

Output produced by METARs form (2036 UTC 16 December 2017)
found at http://www.aviationweather.gov/adds/metars/
 
KGWO 161953Z AUTO 16007KT 10SM CLR 13/M02 A3020 RMK AO2 SLP227 T01331017
KGWO 161853Z AUTO 21007KT 10SM CLR 13/M01 A3022 RMK AO2 SLP233 T01281011
KGWO 161753Z AUTO 21004KT 10SM CLR 11/M01 A3025 RMK AO2 SLP244 T01111006 10117 21028 58017
KGWO 161653Z AUTO 20007KT 10SM CLR 10/M01 A3029 RMK AO2 SLP258 T01001006
KGWO 161553Z AUTO 19006KT 10SM CLR 08/00 A3031 RMK AO2 SLP263 T00780000
KGWO 161453Z AUTO 00000KT 10SM CLR 04/00 A3030 RMK AO2 SLP261 T00390000 50011
KGWO 161353Z AUTO 00000KT 10SM CLR M01/M03 A3030 RMK AO2 SLP261 T10111028
KGWO 161253Z AUTO 00000KT 10SM CLR M03/M04 A3028 RMK AO2 SLP256 T10281039
KGWO 161153Z AUTO 00000KT 10SM CLR M03/M04 A3027 RMK AO2 SLP250 T10281044 11011 21033 53003
KGWO 161053Z AUTO 00000KT 10SM CLR M03/M04 A3025 RMK AO2 SLP245 T10331039
KGWO 160953Z AUTO 00000KT 10SM CLR M03/M04 A3025 RMK AO2 SLP246 T10281044
KGWO 160853Z AUTO 00000KT 10SM CLR M02/M04 A3026 RMK AO2 SLP247 T10221039 56002
KGWO 160753Z AUTO 00000KT 10SM CLR M02/M03 A3026 RMK AO2 SLP248 T10171033
KGWO 160653Z AUTO 21003KT 10SM CLR M01/M03 A3026 RMK AO2 SLP247 T10111028
KGWO 160553Z AUTO 00000KT 10SM CLR M02/M04 A3026 RMK AO2 SLP249 T10171039 10039 21022 400781028 50001
KGWO 160453Z AUTO 17003KT 10SM CLR M02/M03 A3027 RMK AO2 SLP250 T10171033
KGWO 160353Z AUTO 00000KT 10SM CLR M01/M04 A3027 RMK AO2 SLP250 T10111039
KGWO 160253Z AUTO 18003KT 10SM CLR M01/M03 A3026 RMK AO2 SLP248 T10061028 53008
KGWO 160153Z AUTO 00000KT 10SM CLR 00/M03 A3024 RMK AO2 SLP242 T00001028
KGWO 160053Z AUTO 00000KT 10SM CLR 01/M03 A3025 RMK AO2 SLP245 T00111028
KGWO 152353Z AUTO 00000KT 10SM CLR 04/M02 A3024 RMK AO2 SLP240 T00391017 10078 20033 51006
KGWO 152253Z AUTO 00000KT 10SM CLR 05/M04 A3023 RMK AO2 SLP238 T00501039
KGWO 152153Z AUTO 00000KT 10SM CLR 07/M04 A3023 RMK AO2 SLP237 T00721039
KGWO 152053Z AUTO 10004KT 10SM CLR 07/M04 A3022 RMK AO2 SLP234 T00721039 56017
KGWO 151953Z AUTO VRB03KT 10SM CLR 07/M04 A3023 RMK AO2 SLP237 T00721039
KGWO 151853Z AUTO VRB03KT 10SM CLR 07/M04 A3025 RMK AO2 SLP243 T00671039
KGWO 151753Z AUTO 01004KT 10SM CLR 06/M04 A3027 RMK AO2 SLP251 T00561039 10061 21017 50006
KGWO 151653Z AUTO 35005KT 10SM CLR 06/M03 A3029 RMK AO2 SLP259 T00561028
KGWO 151553Z AUTO 00000KT 10SM CLR 04/M01 A3029 RMK AO2 SLP259 T00391006
KGWO 151453Z AUTO 00000KT 10SM CLR 02/M01 A3025 RMK AO2 SLP245 T00171011 51019
KGWO 151353Z AUTO 00000KT 10SM CLR 00/M01 A3023 RMK AO2 SLP236 T00001011
KGWO 151253Z AUTO 00000KT 10SM CLR M01/M02 A3023 RMK AO2 SLP238 T10111022
KGWO 151153Z AUTO 00000KT 10SM CLR M02/M02 A3020 RMK AO2 SLP226 T10171022 10028 21028 53013
KGWO 151053Z AUTO 00000KT 10SM CLR M02/M02 A3016 RMK AO2 SLP214 T10171022
KGWO 150953Z AUTO 00000KT 10SM CLR M02/M03 A3016 RMK AO2 SLP214 T10221033
KGWO 150853Z AUTO 00000KT 10SM CLR M01/M03 A3016 RMK AO2 SLP213 T10061028 53011
KGWO 150753Z AUTO 00000KT 10SM CLR 00/M02 A3014 RMK AO2 SLP206 T00001017
KGWO 150653Z AUTO 33003KT 10SM CLR 00/M03 A3013 RMK AO2 SLP202 T00001028
KGWO 150553Z AUTO 35004KT 10SM CLR 03/M02 A3013 RMK AO2 SLP202 T00281022 10100 20022 401610000 51013
KGWO 150453Z AUTO 02006KT 10SM CLR 03/M02 A3012 RMK AO2 SLP199 T00281017
KGWO 150353Z AUTO 01005KT 10SM CLR 04/M01 A3011 RMK AO2 SLP196 T00441006
KGWO 150253Z AUTO 36008KT 10SM CLR 07/M01 A3009 RMK AO2 SLP189 T00671006 51022
KGWO 150153Z AUTO 36008KT 10SM CLR 08/00 A3008 RMK AO2 SLP186 T00780000
KGWO 150053Z AUTO 36007KT 10SM CLR 09/01 A3006 RMK AO2 SLP179 T00890006
KGWO 142353Z AUTO 36007KT 10SM CLR 10/01 A3003 RMK AO2 SLP167 T01000006 10161 20100 53021
KGWO 142253Z AUTO 35006KT 10SM CLR 11/01 A3001 RMK AO2 SLP160 T01110006
KGWO 142153Z AUTO 34007KT 10SM CLR 12/01 A2998 RMK AO2 SLP151 T01220006
KGWO 142053Z AUTO VRB05KT 10SM CLR 14/01 A2996 RMK AO2 SLP146 T01440011 55005
KGWO 141953Z AUTO 31005KT 10SM CLR 16/00 A2996 RMK AO2 SLP146 T01610000
KGWO 141853Z AUTO 10SM CLR 16/01 A2998 RMK AO2 SLP150 T01560006
KGWO 141753Z AUTO 00000KT 10SM CLR 14/01 A2998 RMK AO2 SLP151 T01390011 10139 20000 58009
KGWO 141653Z AUTO 03006KT 10SM CLR 12/01 A3001 RMK AO2 SLP161 T01170011
KGWO 141553Z AUTO 00000KT 10SM CLR 09/01 A3001 RMK AO2 SLP163 T00890011
KGWO 141453Z AUTO 00000KT 10SM CLR 07/02 A3001 RMK AO2 SLP161 T00670017 53023
KGWO 141353Z AUTO 00000KT 10SM CLR 02/M01 A2998 RMK AO2 SLP152 T00221006
KGWO 141253Z AUTO 19003KT 10SM CLR 01/M01 A2995 RMK AO2 SLP143 T00061011
KGWO 141153Z AUTO 19003KT 10SM CLR 02/M01 A2994 RMK AO2 SLP137 T00171011 10061 20006 53006
KGWO 141053Z AUTO 19003KT 10SM CLR 03/M01 A2993 RMK AO2 SLP133 T00281006
KGWO 140953Z AUTO 18003KT 10SM CLR 02/M01 A2991 RMK AO2 SLP128 T00171011
KGWO 140853Z AUTO 18006KT 10SM CLR 03/M01 A2992 RMK AO2 SLP131 T00281011 53002
KGWO 140753Z AUTO 19004KT 10SM CLR 03/M01 A2992 RMK AO2 SLP130 T00331011
KGWO 140653Z AUTO 21004KT 9SM CLR 04/M01 A2992 RMK AO2 SLP130 T00441011
KGWO 140553Z AUTO 21006KT 10SM CLR 05/M01 A2991 RMK AO2 SLP129 T00501011 10106 20050 401561039 50005
KGWO 140453Z AUTO 21006KT 10SM CLR 06/M01 A2992 RMK AO2 SLP132 T00561011
KGWO 140353Z AUTO 21006KT 10SM CLR 06/M02 A2991 RMK AO2 SLP129 T00561017
KGWO 140253Z AUTO 22007KT 10SM CLR 08/M02 A2990 RMK AO2 SLP125 T00781017 53007
KGWO 140153Z AUTO 21008KT 10SM CLR 08/M01 A2989 RMK AO2 SLP121 T00781011
KGWO 140053Z AUTO 21009KT 10SM CLR 09/M02 A2989 RMK AO2 SLP122 T00941017
KGWO 132353Z AUTO 21009KT 10SM CLR 10/M02 A2988 RMK AO2 SLP118 T01001017 10156 20100 55005
KGWO 132253Z AUTO 20010KT 10SM CLR 12/M02 A2987 RMK AO2 SLP116 T01171022
KGWO 132153Z AUTO 21017G21KT 10SM CLR 14/M03 A2988 RMK AO2 SLP117 T01441033
KGWO 132053Z AUTO 21016KT 10SM CLR 15/M05 A2990 RMK AO2 SLP123 T01501050 58034